createdAt,value
2022-12-16T00:00:47.474Z,40.50
2022-12-16T00:03:15.129Z,39.43
2022-12-16T00:05:44.498Z,39.60
2022-12-16T00:08:12.236Z,37.33
2022-12-16T00:10:55.157Z,41.10
2022-12-16T00:13:22.772Z,39.63
2022-12-16T00:15:50.372Z,41.40
2022-12-16T00:18:20.031Z,40.10
2022-12-16T00:20:49.325Z,39.83
2022-12-16T00:23:20.220Z,39.43
2022-12-16T00:25:48.645Z,38.13
2022-12-16T00:28:17.385Z,36.97
2022-12-16T00:30:47.926Z,39.87
2022-12-16T00:33:15.518Z,37.77
2022-12-16T00:35:45.985Z,36.07
2022-12-16T00:38:14.820Z,35.03
2022-12-16T00:40:43.238Z,36.07
2022-12-16T00:43:11.162Z,37.20
2022-12-16T00:45:39.347Z,36.83
2022-12-16T00:48:08.106Z,36.37
2022-12-16T00:50:36.038Z,35.33
2022-12-16T00:53:04.831Z,35.47
2022-12-16T00:55:32.778Z,37.27
2022-12-16T00:58:00.385Z,33.87
2022-12-16T01:00:28.061Z,34.87
2022-12-16T01:02:55.738Z,35.00
2022-12-16T01:05:27.376Z,33.53
2022-12-16T01:07:55.886Z,36.90
2022-12-16T01:10:25.185Z,37.00
2022-12-16T01:12:52.746Z,36.53
2022-12-16T01:15:20.497Z,35.73
2022-12-16T01:17:48.100Z,36.70
2022-12-16T01:20:15.867Z,36.73
2022-12-16T01:22:43.414Z,35.23
2022-12-16T01:25:12.919Z,36.87
2022-12-16T01:27:40.565Z,39.93
2022-12-16T01:30:09.580Z,36.70
2022-12-16T01:32:37.248Z,36.63
2022-12-16T01:35:14.037Z,36.20
2022-12-16T01:37:51.114Z,34.67
2022-12-16T01:40:22.407Z,37.40
2022-12-16T01:42:50.293Z,34.43
2022-12-16T01:45:33.304Z,38.13
2022-12-16T01:48:18.384Z,38.37
2022-12-16T01:50:46.821Z,36.87
2022-12-16T01:53:14.637Z,35.93
2022-12-16T01:55:47.782Z,41.00
2022-12-16T01:58:24.718Z,38.37
2022-12-16T02:00:52.639Z,34.63
2022-12-16T02:03:22.893Z,33.23
2022-12-16T02:05:51.863Z,34.90
2022-12-16T02:08:20.443Z,35.20
2022-12-16T02:11:06.284Z,37.83
2022-12-16T02:14:17.528Z,36.07
2022-12-16T02:17:22.327Z,36.53
2022-12-16T02:20:29.036Z,37.67
2022-12-16T02:23:26.281Z,36.83
2022-12-16T02:25:53.841Z,35.40
2022-12-16T02:28:53.500Z,35.97
2022-12-16T02:31:39.651Z,38.17
2022-12-16T02:34:15.858Z,37.50
2022-12-16T02:36:57.890Z,36.83
2022-12-16T02:39:33.059Z,38.57
2022-12-16T02:42:13.687Z,39.77
2022-12-16T02:45:04.579Z,37.03
2022-12-16T02:47:32.981Z,40.87
2022-12-16T02:50:00.771Z,41.53
2022-12-16T02:52:33.863Z,39.53
2022-12-16T02:55:09.048Z,39.90
2022-12-16T02:57:50.164Z,39.73
2022-12-16T03:00:21.524Z,39.53
2022-12-16T03:03:13.465Z,40.73
2022-12-16T03:05:48.126Z,38.67
2022-12-16T03:08:34.065Z,38.03
2022-12-16T03:11:05.314Z,39.43
2022-12-16T03:13:38.909Z,39.87
2022-12-16T03:16:09.288Z,38.63
2022-12-16T03:18:42.202Z,38.53
2022-12-16T03:21:11.027Z,36.47
2022-12-16T03:24:00.676Z,38.00
2022-12-16T03:26:35.957Z,38.13
2022-12-16T03:29:25.311Z,39.07
2022-12-16T03:31:56.530Z,35.77
2022-12-16T03:34:35.732Z,36.57
2022-12-16T03:37:07.343Z,39.10
2022-12-16T03:39:44.159Z,36.57
2022-12-16T03:42:14.469Z,37.40
2022-12-16T03:44:44.862Z,35.67
2022-12-16T03:47:14.969Z,37.33
2022-12-16T03:49:49.043Z,35.47
2022-12-16T03:52:16.566Z,37.50
2022-12-16T03:54:44.108Z,38.63
2022-12-16T03:57:15.400Z,36.77
2022-12-16T03:59:43.449Z,37.57
2022-12-16T04:02:11.281Z,35.93
2022-12-16T04:04:39.023Z,36.70
2022-12-16T04:07:22.029Z,36.37
2022-12-16T04:09:50.862Z,32.90
2022-12-16T04:12:38.022Z,33.90
2022-12-16T04:15:25.665Z,32.87
2022-12-16T04:18:11.853Z,33.20
2022-12-16T04:21:06.287Z,34.23
2022-12-16T04:23:53.598Z,32.40
2022-12-16T04:26:22.721Z,33.13
2022-12-16T04:28:50.289Z,32.90
2022-12-16T04:31:17.969Z,35.07
2022-12-16T04:34:04.370Z,33.47
2022-12-16T04:36:50.797Z,32.30
2022-12-16T04:39:37.053Z,34.83
2022-12-16T04:42:23.400Z,32.30
2022-12-16T04:45:09.761Z,32.80
2022-12-16T04:47:57.699Z,31.53
2022-12-16T04:50:44.302Z,33.83
2022-12-16T04:53:30.857Z,34.80
2022-12-16T04:56:17.483Z,31.13
2022-12-16T04:59:03.831Z,31.40
2022-12-16T05:01:50.327Z,33.07
2022-12-16T05:04:36.614Z,33.10
2022-12-16T05:07:23.131Z,31.93
2022-12-16T05:10:09.410Z,30.77
2022-12-16T05:12:55.634Z,30.13
2022-12-16T05:15:42.088Z,30.23
2022-12-16T05:18:33.150Z,30.03
2022-12-16T05:21:21.020Z,31.37
2022-12-16T05:24:07.357Z,32.80
2022-12-16T05:26:53.726Z,31.10
2022-12-16T05:29:39.681Z,33.93
2022-12-16T05:32:26.093Z,30.03
2022-12-16T05:35:12.469Z,32.33
2022-12-16T05:37:58.499Z,32.33
2022-12-16T05:40:44.863Z,33.60
2022-12-16T05:43:31.511Z,34.93
2022-12-16T05:46:17.934Z,33.93
2022-12-16T05:49:04.444Z,31.90
2022-12-16T05:51:50.640Z,32.70
2022-12-16T05:54:36.913Z,33.03
2022-12-16T05:57:23.066Z,31.77
2022-12-16T06:00:09.412Z,32.93
2022-12-16T06:02:55.879Z,31.00
2022-12-16T06:05:42.315Z,33.47
2022-12-16T06:08:28.528Z,30.37
2022-12-16T06:11:14.936Z,34.60
2022-12-16T06:14:01.337Z,31.13
2022-12-16T06:16:47.666Z,32.17
2022-12-16T06:19:34.118Z,31.17
2022-12-16T06:22:20.414Z,33.67
2022-12-16T06:25:06.785Z,35.23
2022-12-16T06:27:53.152Z,35.63
2022-12-16T06:30:39.520Z,33.00
2022-12-16T06:33:25.971Z,32.17
2022-12-16T06:36:12.370Z,31.40
2022-12-16T06:38:58.691Z,31.40
2022-12-16T06:41:58.723Z,32.90
2022-12-16T06:44:45.190Z,31.50
2022-12-16T06:47:31.489Z,32.07
2022-12-16T06:50:17.810Z,33.40
2022-12-16T06:53:04.540Z,32.80
2022-12-16T06:55:50.989Z,35.57
2022-12-16T06:58:37.077Z,33.60
2022-12-16T07:01:23.691Z,35.27
2022-12-16T07:04:10.099Z,35.97
2022-12-16T07:06:56.364Z,36.93
2022-12-16T07:09:42.751Z,33.90
2022-12-16T07:12:29.179Z,37.17
2022-12-16T07:15:15.682Z,38.23
2022-12-16T07:18:04.184Z,38.87
2022-12-16T07:20:50.610Z,38.27
2022-12-16T07:23:37.201Z,37.53
2022-12-16T07:26:24.748Z,36.70
2022-12-16T07:29:10.986Z,39.33
2022-12-16T07:31:57.499Z,38.00
2022-12-16T07:34:49.858Z,36.30
2022-12-16T07:37:36.613Z,39.37
2022-12-16T07:40:23.548Z,39.47
2022-12-16T07:43:09.853Z,37.67
2022-12-16T07:45:56.213Z,36.17
2022-12-16T07:48:42.296Z,36.80
2022-12-16T07:51:28.842Z,35.50
2022-12-16T07:54:15.133Z,35.13
2022-12-16T07:57:01.222Z,37.90
2022-12-16T07:59:47.555Z,37.93
2022-12-16T08:02:33.866Z,37.23
2022-12-16T08:05:20.139Z,36.40
2022-12-16T08:08:06.377Z,37.77
2022-12-16T08:10:52.851Z,34.50
2022-12-16T08:13:41.440Z,33.30
2022-12-16T08:16:27.749Z,34.77
2022-12-16T08:19:14.110Z,32.10
2022-12-16T08:22:00.331Z,33.10
2022-12-16T08:24:55.955Z,32.43
2022-12-16T08:27:42.579Z,34.13
2022-12-16T08:30:29.370Z,33.87
2022-12-16T08:33:19.625Z,35.23
2022-12-16T08:36:06.377Z,34.70
2022-12-16T08:38:53.964Z,32.93
2022-12-16T08:41:42.083Z,33.43
2022-12-16T08:44:28.258Z,31.60
2022-12-16T08:47:14.273Z,31.23
2022-12-16T08:50:02.234Z,30.13
2022-12-16T08:52:49.609Z,33.73
2022-12-16T08:55:40.306Z,32.63
2022-12-16T08:58:26.776Z,30.13
2022-12-16T09:01:13.073Z,31.13
2022-12-16T09:03:59.438Z,32.33
2022-12-16T09:06:45.921Z,30.63
2022-12-16T09:09:32.448Z,36.00
2022-12-16T09:12:18.814Z,33.00
2022-12-16T09:15:05.202Z,33.67
2022-12-16T09:17:51.549Z,33.63
2022-12-16T09:20:38.983Z,29.77
2022-12-16T09:23:25.365Z,31.70
2022-12-16T09:26:11.993Z,31.97
2022-12-16T09:28:58.307Z,31.93
2022-12-16T09:31:44.494Z,30.27
2022-12-16T09:34:31.005Z,32.93
2022-12-16T09:37:17.143Z,33.30
2022-12-16T09:40:03.527Z,32.27
2022-12-16T09:43:15.916Z,32.27
2022-12-16T09:46:53.958Z,31.33
2022-12-16T09:50:03.197Z,28.77
2022-12-16T09:52:54.407Z,30.30
2022-12-16T09:55:48.318Z,31.30
2022-12-16T09:58:36.650Z,29.07
2022-12-16T10:01:23.216Z,30.40
2022-12-16T10:04:09.856Z,29.50
2022-12-16T10:07:05.973Z,28.07
2022-12-16T10:10:01.572Z,28.13
2022-12-16T10:13:05.748Z,27.70
2022-12-16T10:16:03.862Z,30.07
2022-12-16T10:19:08.209Z,28.60
2022-12-16T10:22:27.832Z,28.07
2022-12-16T10:25:27.310Z,27.03
2022-12-16T10:28:23.368Z,27.43
2022-12-16T10:31:10.808Z,22.93
2022-12-16T10:33:57.100Z,23.73
2022-12-16T10:36:44.084Z,24.10
2022-12-16T10:39:52.876Z,24.27
2022-12-16T10:42:52.012Z,21.97
2022-12-16T10:45:46.631Z,23.70
2022-12-16T10:48:36.035Z,24.07
2022-12-16T10:51:33.915Z,21.97
2022-12-16T10:54:53.028Z,22.37
2022-12-16T10:57:47.370Z,19.87
2022-12-16T11:00:36.530Z,22.03
2022-12-16T11:03:43.641Z,21.17
2022-12-16T11:06:35.497Z,19.47
2022-12-16T11:09:39.661Z,20.63
2022-12-16T11:12:45.974Z,21.40
2022-12-16T11:15:43.195Z,20.00
2022-12-16T11:18:39.845Z,21.83
2022-12-16T11:21:35.085Z,20.10
2022-12-16T11:24:35.404Z,18.57
2022-12-16T11:27:39.679Z,17.27
2022-12-16T11:30:30.787Z,18.13
2022-12-16T11:33:19.188Z,20.53
2022-12-16T11:36:11.174Z,18.27
2022-12-16T11:39:05.871Z,17.50
2022-12-16T11:41:57.884Z,21.00
2022-12-16T11:44:52.183Z,17.23
2022-12-16T11:47:49.738Z,18.87
2022-12-16T11:50:41.369Z,18.37
2022-12-16T11:53:43.238Z,16.77
2022-12-16T11:56:36.238Z,18.13
2022-12-16T11:59:30.819Z,16.87
2022-12-16T12:02:19.792Z,15.97
2022-12-16T12:05:08.954Z,16.27
2022-12-16T12:08:20.384Z,17.80
2022-12-16T12:11:24.298Z,18.67
2022-12-16T12:14:16.630Z,18.87
2022-12-16T12:17:31.666Z,18.60
2022-12-16T12:20:43.943Z,18.40
2022-12-16T12:23:33.728Z,15.27
2022-12-16T12:26:38.531Z,17.73
2022-12-16T12:29:52.274Z,16.47
2022-12-16T12:32:56.452Z,16.53
2022-12-16T12:36:11.922Z,15.97
2022-12-16T12:39:30.751Z,16.97
2022-12-16T12:42:40.369Z,16.70
2022-12-16T12:45:59.498Z,13.73
2022-12-16T12:48:57.590Z,17.67
2022-12-16T12:52:16.016Z,15.50
2022-12-16T12:55:28.150Z,18.03
2022-12-16T12:58:16.410Z,15.30
2022-12-16T13:01:07.158Z,16.77
2022-12-16T13:04:12.266Z,16.13
2022-12-16T13:06:59.166Z,16.97
2022-12-16T13:09:50.120Z,15.90
2022-12-16T13:12:42.204Z,13.60
2022-12-16T13:15:51.522Z,14.33
2022-12-16T13:18:43.731Z,13.43
2022-12-16T13:21:54.810Z,17.70
2022-12-16T13:24:45.823Z,19.80
2022-12-16T13:27:38.329Z,18.87
2022-12-16T13:30:32.324Z,16.10
2022-12-16T13:33:51.175Z,16.87
2022-12-16T13:36:38.297Z,16.17
2022-12-16T13:39:41.318Z,15.37
2022-12-16T13:42:50.065Z,12.43
2022-12-16T13:45:50.573Z,12.73
2022-12-16T13:48:48.480Z,13.03
2022-12-16T13:51:56.467Z,12.77
2022-12-16T13:54:59.225Z,12.23
2022-12-16T13:57:48.915Z,13.80
2022-12-16T14:00:41.497Z,14.23
2022-12-16T14:03:43.766Z,15.63
2022-12-16T14:06:37.557Z,16.00
2022-12-16T14:09:23.897Z,14.93
2022-12-16T14:12:42.560Z,15.07
2022-12-16T14:15:47.079Z,16.73
2022-12-16T14:18:49.775Z,17.63
2022-12-16T14:21:42.820Z,18.83
2022-12-16T14:24:46.729Z,18.73
2022-12-16T14:27:40.590Z,16.08
2022-12-16T14:30:39.381Z,17.87
2022-12-16T14:33:36.053Z,17.77
2022-12-16T14:36:22.890Z,18.47
2022-12-16T14:39:09.835Z,15.67
2022-12-16T14:41:56.108Z,16.70
2022-12-16T14:44:43.791Z,19.40
2022-12-16T14:47:40.467Z,20.60
2022-12-16T14:50:48.512Z,21.80
2022-12-16T14:53:40.470Z,20.00
2022-12-16T14:56:35.532Z,22.90
2022-12-16T14:59:36.266Z,20.63
2022-12-16T15:02:45.528Z,21.77
2022-12-16T15:05:35.674Z,20.97
2022-12-16T15:08:21.962Z,19.87
2022-12-16T15:11:08.052Z,22.03
2022-12-16T15:13:58.983Z,22.07
2022-12-16T15:16:55.312Z,19.77
2022-12-16T15:19:45.390Z,19.90
2022-12-16T15:22:44.971Z,22.03
2022-12-16T15:25:38.551Z,19.97
2022-12-16T15:28:44.036Z,19.97
2022-12-16T15:31:42.585Z,23.07
2022-12-16T15:34:45.820Z,22.23
2022-12-16T15:38:03.584Z,22.10
2022-12-16T15:40:53.020Z,25.27
2022-12-16T15:43:46.438Z,21.27
2022-12-16T15:46:47.149Z,23.63
2022-12-16T15:49:51.616Z,22.40
2022-12-16T15:53:01.950Z,23.93
2022-12-16T15:56:04.181Z,20.77
2022-12-16T15:58:55.091Z,22.50
2022-12-16T16:01:44.283Z,23.67
2022-12-16T16:04:48.788Z,27.23
2022-12-16T16:07:41.381Z,25.93
2022-12-16T16:10:38.877Z,24.77
2022-12-16T16:13:25.906Z,27.80
2022-12-16T16:16:14.812Z,24.00
2022-12-16T16:19:01.754Z,25.13
2022-12-16T16:21:48.842Z,26.20
2022-12-16T16:24:35.214Z,27.33
2022-12-16T16:27:22.607Z,31.43
2022-12-16T16:30:08.918Z,26.97
2022-12-16T16:32:55.220Z,28.00
2022-12-16T16:35:41.590Z,28.10
2022-12-16T16:38:30.017Z,28.80
2022-12-16T16:41:16.917Z,30.60
2022-12-16T16:44:03.147Z,28.83
2022-12-16T16:46:55.655Z,30.13
2022-12-16T16:49:42.908Z,31.33
2022-12-16T16:52:34.894Z,31.00
2022-12-16T16:55:21.356Z,32.53
2022-12-16T16:58:07.283Z,33.47
2022-12-16T17:00:53.747Z,33.50
2022-12-16T17:03:41.336Z,30.47
2022-12-16T17:06:28.015Z,31.40
2022-12-16T17:09:14.415Z,29.67
2022-12-16T17:12:00.971Z,33.50
2022-12-16T17:14:47.191Z,31.67
2022-12-16T17:17:33.515Z,33.13
2022-12-16T17:20:19.906Z,31.17
2022-12-16T17:23:06.226Z,33.47
2022-12-16T17:25:52.630Z,38.67
2022-12-16T17:28:39.231Z,35.10
2022-12-16T17:31:26.827Z,35.33
2022-12-16T17:34:13.316Z,35.03
2022-12-16T17:36:59.757Z,34.87
2022-12-16T17:39:45.972Z,34.87
2022-12-16T17:42:32.468Z,34.70
2022-12-16T17:45:19.408Z,30.97
2022-12-16T17:48:05.564Z,33.93
2022-12-16T17:50:51.692Z,37.90
2022-12-16T17:53:37.922Z,35.47
2022-12-16T17:56:24.213Z,33.67
2022-12-16T17:59:11.338Z,33.37
2022-12-16T18:01:57.837Z,34.03
2022-12-16T18:04:43.934Z,36.07
2022-12-16T18:07:30.049Z,34.93
2022-12-16T18:10:16.241Z,36.43
2022-12-16T18:13:02.624Z,35.33
2022-12-16T18:15:50.496Z,33.97
2022-12-16T18:18:39.335Z,33.23
2022-12-16T18:21:30.955Z,35.07
2022-12-16T18:24:17.301Z,32.43
2022-12-16T18:27:03.629Z,36.03
2022-12-16T18:33:14.496Z,35.73
2022-12-16T18:36:00.619Z,33.10
2022-12-16T18:38:47.092Z,35.90
2022-12-16T18:41:36.290Z,32.13
2022-12-16T18:44:25.108Z,32.97
2022-12-16T18:47:11.513Z,34.87
2022-12-16T18:49:57.790Z,36.67
2022-12-16T18:52:44.072Z,33.37
2022-12-16T18:55:30.516Z,33.03
2022-12-16T18:58:42.697Z,34.70
2022-12-16T19:01:25.872Z,36.37
2022-12-16T19:04:13.494Z,37.53
2022-12-16T19:07:00.338Z,36.90
2022-12-16T19:09:55.665Z,37.63
2022-12-16T19:13:00.042Z,35.27
2022-12-16T19:15:46.385Z,37.97
2022-12-16T19:19:01.490Z,37.53
2022-12-16T19:21:51.974Z,35.07
2022-12-16T19:24:42.850Z,38.90
2022-12-16T19:27:29.234Z,34.87
2022-12-16T19:30:15.598Z,36.20
2022-12-16T19:33:01.794Z,36.00
2022-12-16T19:35:49.487Z,35.33
2022-12-16T19:38:35.568Z,38.07
2022-12-16T19:41:21.660Z,39.77
2022-12-16T19:44:07.824Z,38.97
2022-12-16T19:46:56.325Z,38.63
2022-12-16T19:49:44.611Z,35.03
2022-12-16T19:52:31.315Z,35.80
2022-12-16T19:55:17.985Z,38.80
2022-12-16T19:58:04.162Z,35.00
2022-12-16T20:00:50.482Z,35.53
2022-12-16T20:03:38.066Z,32.30
2022-12-16T20:06:27.974Z,36.50
2022-12-16T20:09:15.387Z,32.80
2022-12-16T20:12:01.576Z,37.67
2022-12-16T20:14:48.083Z,33.27
2022-12-16T20:17:34.242Z,34.33
2022-12-16T20:20:20.638Z,37.73
2022-12-16T20:23:06.904Z,37.33
2022-12-16T20:25:56.369Z,34.20
2022-12-16T20:28:43.044Z,35.50
2022-12-16T20:31:29.197Z,36.93
2022-12-16T20:34:15.955Z,35.60
2022-12-16T20:37:02.250Z,37.90
2022-12-16T20:39:56.416Z,37.23
2022-12-16T20:42:44.648Z,38.97
2022-12-16T20:45:32.519Z,43.67
2022-12-16T20:48:18.829Z,39.40
2022-12-16T20:54:25.232Z,38.27
2022-12-16T20:57:12.840Z,40.77
2022-12-16T20:59:59.435Z,37.57
2022-12-16T21:02:46.012Z,39.97
2022-12-16T21:05:32.492Z,39.87
2022-12-16T21:08:18.865Z,42.43
2022-12-16T21:11:05.186Z,42.00
2022-12-16T21:13:51.497Z,43.03
2022-12-16T21:16:38.301Z,42.67
2022-12-16T21:19:29.401Z,44.00
2022-12-16T21:22:19.378Z,40.17
2022-12-16T21:25:05.709Z,44.13
2022-12-16T21:27:51.777Z,47.00
2022-12-16T21:30:38.831Z,48.67
2022-12-16T21:33:25.079Z,47.00
2022-12-16T21:36:12.396Z,49.53
2022-12-16T21:38:58.842Z,50.90
2022-12-16T21:41:45.269Z,50.33
2022-12-16T21:44:31.589Z,53.37
2022-12-16T21:47:18.154Z,56.07
2022-12-16T21:50:04.524Z,59.40
2022-12-16T21:52:50.645Z,57.67
2022-12-16T21:55:38.229Z,57.90
2022-12-16T21:58:29.768Z,54.07
2022-12-16T22:01:17.274Z,56.10
2022-12-16T22:04:03.408Z,57.13
2022-12-16T22:06:50.319Z,52.97
2022-12-16T22:09:36.696Z,55.03
2022-12-16T22:12:23.199Z,56.67
2022-12-16T22:15:09.440Z,57.33
2022-12-16T22:17:58.600Z,54.73
2022-12-16T22:21:01.968Z,56.70
2022-12-16T22:23:48.524Z,53.80
2022-12-16T22:26:35.082Z,54.37
2022-12-16T22:29:21.425Z,55.43
2022-12-16T22:32:07.839Z,56.00
2022-12-16T22:34:54.092Z,54.27
2022-12-16T22:36:21.548Z,39.47
2022-12-16T22:37:41.938Z,53.70
2022-12-16T22:40:28.893Z,51.80
2022-12-16T22:43:15.441Z,52.00
2022-12-16T22:46:01.840Z,52.90
2022-12-16T22:48:48.347Z,52.17
2022-12-16T22:51:35.436Z,52.40
2022-12-16T22:54:21.587Z,56.17
2022-12-16T22:57:07.987Z,54.50
2022-12-16T22:59:54.309Z,55.67
2022-12-16T23:02:42.811Z,55.87
2022-12-16T23:05:29.151Z,55.93
2022-12-16T23:08:15.570Z,57.03
2022-12-16T23:11:01.831Z,58.97
2022-12-16T23:13:48.265Z,53.00
2022-12-16T23:16:37.339Z,59.97
2022-12-16T23:19:23.597Z,59.63
2022-12-16T23:22:10.026Z,55.20
2022-12-16T23:24:56.161Z,56.67
2022-12-16T23:27:43.274Z,52.87
2022-12-16T23:30:29.790Z,52.87
2022-12-16T23:33:19.774Z,55.83
2022-12-16T23:36:06.619Z,52.20
2022-12-16T23:38:53.313Z,51.17
2022-12-16T23:41:39.902Z,53.97
2022-12-16T23:44:26.247Z,49.00
2022-12-16T23:47:12.477Z,53.73
2022-12-16T23:49:58.849Z,52.33
2022-12-16T23:52:45.248Z,56.17
2022-12-16T23:55:31.584Z,51.47
2022-12-16T23:58:19.966Z,53.70
